sensor_id;sensor_type;location;lat;lon;timestamp;temperature;humidity
35603;DHT22;21725;50.836;4.368;2024-03-07T00:01:57;10.10;99.90
35603;DHT22;21725;50.836;4.368;2024-03-07T00:04:58;10.10;99.90
35603;DHT22;21725;50.836;4.368;2024-03-07T00:07:59;10.10;99.90
35603;DHT22;21725;50.836;4.368;2024-03-07T00:10:59;10.10;99.90
35603;DHT22;21725;50.836;4.368;2024-03-07T00:14:00;10.00;99.90
35603;DHT22;21725;50.836;4.368;2024-03-07T00:17:01;10.00;99.90
35603;DHT22;21725;50.836;4.368;2024-03-07T00:20:04;10.00;99.90
35603;DHT22;21725;50.836;4.368;2024-03-07T00:23:05;10.00;99.90
35603;DHT22;21725;50.836;4.368;2024-03-07T00:26:06;9.90;99.90
35603;DHT22;21725;50.836;4.368;2024-03-07T00:29:08;9.90;99.90
35603;DHT22;21725;50.836;4.368;2024-03-07T00:32:09;8.00;99.90
35603;DHT22;21725;50.836;4.368;2024-03-07T00:35:10;9.80;99.90
35603;DHT22;21725;50.836;4.368;2024-03-07T00:38:11;9.80;99.90
35603;DHT22;21725;50.836;4.368;2024-03-07T00:41:11;9.70;99.90
35603;DHT22;21725;50.836;4.368;2024-03-07T00:44:12;9.70;99.90
35603;DHT22;21725;50.836;4.368;2024-03-07T00:47:13;9.80;99.90
35603;DHT22;21725;50.836;4.368;2024-03-07T00:50:14;9.80;99.90
35603;DHT22;21725;50.836;4.368;2024-03-07T00:53:15;9.60;99.90
35603;DHT22;21725;50.836;4.368;2024-03-07T00:56:16;9.60;99.90
35603;DHT22;21725;50.836;4.368;2024-03-07T00:59:17;9.50;99.90
35603;DHT22;21725;50.836;4.368;2024-03-07T01:02:18;9.30;99.90
35603;DHT22;21725;50.836;4.368;2024-03-07T01:05:19;9.20;99.90
35603;DHT22;21725;50.836;4.368;2024-03-07T01:08:20;9.20;99.90
35603;DHT22;21725;50.836;4.368;2024-03-07T01:11:21;9.20;99.90
35603;DHT22;21725;50.836;4.368;2024-03-07T01:14:22;9.20;99.90
35603;DHT22;21725;50.836;4.368;2024-03-07T01:17:23;9.40;99.90
35603;DHT22;21725;50.836;4.368;2024-03-07T01:20:24;9.50;99.90
35603;DHT22;21725;50.836;4.368;2024-03-07T01:23:25;9.30;99.90
35603;DHT22;21725;50.836;4.368;2024-03-07T01:26:28;9.30;99.90
35603;DHT22;21725;50.836;4.368;2024-03-07T01:29:29;9.40;99.90
35603;DHT22;21725;50.836;4.368;2024-03-07T01:32:30;9.20;99.90
35603;DHT22;21725;50.836;4.368;2024-03-07T01:35:30;9.20;99.90
35603;DHT22;21725;50.836;4.368;2024-03-07T01:38:31;9.30;99.90
35603;DHT22;21725;50.836;4.368;2024-03-07T01:41:32;9.10;99.90
35603;DHT22;21725;50.836;4.368;2024-03-07T01:44:34;9.20;99.90
35603;DHT22;21725;50.836;4.368;2024-03-07T01:47:36;9.10;99.90
35603;DHT22;21725;50.836;4.368;2024-03-07T01:50:36;9.00;99.90
35603;DHT22;21725;50.836;4.368;2024-03-07T01:53:40;8.90;99.90
35603;DHT22;21725;50.836;4.368;2024-03-07T01:56:41;8.90;99.90
35603;DHT22;21725;50.836;4.368;2024-03-07T01:59:42;8.80;99.90
35603;DHT22;21725;50.836;4.368;2024-03-07T02:02:44;8.80;99.90
35603;DHT22;21725;50.836;4.368;2024-03-07T02:05:45;8.90;99.90
35603;DHT22;21725;50.836;4.368;2024-03-07T02:08:46;8.90;99.90
35603;DHT22;21725;50.836;4.368;2024-03-07T02:11:48;8.80;99.90
35603;DHT22;21725;50.836;4.368;2024-03-07T02:14:51;8.70;99.90
35603;DHT22;21725;50.836;4.368;2024-03-07T02:17:52;8.80;99.90
35603;DHT22;21725;50.836;4.368;2024-03-07T02:20:53;8.80;99.90
35603;DHT22;21725;50.836;4.368;2024-03-07T02:23:55;8.90;99.90
35603;DHT22;21725;50.836;4.368;2024-03-07T02:26:55;8.90;99.90
35603;DHT22;21725;50.836;4.368;2024-03-07T02:29:57;9.00;99.90
35603;DHT22;21725;50.836;4.368;2024-03-07T02:32:58;9.10;99.90
35603;DHT22;21725;50.836;4.368;2024-03-07T02:36:06;9.10;99.90
35603;DHT22;21725;50.836;4.368;2024-03-07T02:39:07;9.00;99.90
35603;DHT22;21725;50.836;4.368;2024-03-07T02:42:08;8.90;99.90
35603;DHT22;21725;50.836;4.368;2024-03-07T02:45:09;8.70;99.90
35603;DHT22;21725;50.836;4.368;2024-03-07T02:48:10;8.80;99.90
35603;DHT22;21725;50.836;4.368;2024-03-07T02:51:11;8.70;99.90
35603;DHT22;21725;50.836;4.368;2024-03-07T02:54:12;8.60;99.90
35603;DHT22;21725;50.836;4.368;2024-03-07T02:57:13;8.40;99.90
35603;DHT22;21725;50.836;4.368;2024-03-07T03:00:13;8.40;99.90
35603;DHT22;21725;50.836;4.368;2024-03-07T03:03:20;8.60;99.90
35603;DHT22;21725;50.836;4.368;2024-03-07T03:06:21;8.60;99.90
35603;DHT22;21725;50.836;4.368;2024-03-07T03:09:22;8.50;99.90
35603;DHT22;21725;50.836;4.368;2024-03-07T03:12:22;8.40;99.90
35603;DHT22;21725;50.836;4.368;2024-03-07T03:15:23;8.40;99.90
35603;DHT22;21725;50.836;4.368;2024-03-07T03:18:24;8.40;99.90
35603;DHT22;21725;50.836;4.368;2024-03-07T03:21:24;8.20;99.90
35603;DHT22;21725;50.836;4.368;2024-03-07T03:24:25;8.30;99.90
35603;DHT22;21725;50.836;4.368;2024-03-07T03:27:27;8.30;99.90
35603;DHT22;21725;50.836;4.368;2024-03-07T03:30:28;8.20;99.90
35603;DHT22;21725;50.836;4.368;2024-03-07T03:33:29;8.00;99.90
35603;DHT22;21725;50.836;4.368;2024-03-07T03:36:30;7.90;99.90
35603;DHT22;21725;50.836;4.368;2024-03-07T03:39:31;8.00;99.90
35603;DHT22;21725;50.836;4.368;2024-03-07T03:42:32;8.00;99.90
35603;DHT22;21725;50.836;4.368;2024-03-07T03:45:32;8.00;99.90
35603;DHT22;21725;50.836;4.368;2024-03-07T03:48:34;7.90;99.90
35603;DHT22;21725;50.836;4.368;2024-03-07T03:51:35;7.90;99.90
35603;DHT22;21725;50.836;4.368;2024-03-07T03:54:36;7.90;99.90
35603;DHT22;21725;50.836;4.368;2024-03-07T03:57:42;8.00;99.90
35603;DHT22;21725;50.836;4.368;2024-03-07T04:00:43;7.90;99.90
35603;DHT22;21725;50.836;4.368;2024-03-07T04:03:43;7.80;99.90
35603;DHT22;21725;50.836;4.368;2024-03-07T04:06:47;7.80;99.90
35603;DHT22;21725;50.836;4.368;2024-03-07T04:09:48;7.60;99.90
35603;DHT22;21725;50.836;4.368;2024-03-07T04:12:48;7.50;99.90
35603;DHT22;21725;50.836;4.368;2024-03-07T04:15:49;7.60;99.90
35603;DHT22;21725;50.836;4.368;2024-03-07T04:18:50;7.60;99.90
35603;DHT22;21725;50.836;4.368;2024-03-07T04:21:51;7.40;99.90
35603;DHT22;21725;50.836;4.368;2024-03-07T04:24:52;7.60;99.90
35603;DHT22;21725;50.836;4.368;2024-03-07T04:27:55;7.50;99.90
35603;DHT22;21725;50.836;4.368;2024-03-07T04:30:56;7.40;99.90
35603;DHT22;21725;50.836;4.368;2024-03-07T04:33:57;7.30;99.90
35603;DHT22;21725;50.836;4.368;2024-03-07T04:37:00;7.10;99.90
35603;DHT22;21725;50.836;4.368;2024-03-07T04:40:09;7.20;99.90
35603;DHT22;21725;50.836;4.368;2024-03-07T04:43:15;7.10;99.90
35603;DHT22;21725;50.836;4.368;2024-03-07T04:46:16;7.20;99.90
35603;DHT22;21725;50.836;4.368;2024-03-07T04:49:17;6.90;99.90
35603;DHT22;21725;50.836;4.368;2024-03-07T04:52:18;7.10;99.90
35603;DHT22;21725;50.836;4.368;2024-03-07T04:55:19;7.20;99.90
35603;DHT22;21725;50.836;4.368;2024-03-07T04:58:20;7.30;99.90
35603;DHT22;21725;50.836;4.368;2024-03-07T05:01:21;7.30;99.90
35603;DHT22;21725;50.836;4.368;2024-03-07T05:04:21;7.20;99.90
35603;DHT22;21725;50.836;4.368;2024-03-07T05:07:24;7.40;99.90
35603;DHT22;21725;50.836;4.368;2024-03-07T05:10:24;7.40;99.90
35603;DHT22;21725;50.836;4.368;2024-03-07T05:13:25;7.20;99.90
35603;DHT22;21725;50.836;4.368;2024-03-07T05:16:27;7.10;99.90
35603;DHT22;21725;50.836;4.368;2024-03-07T05:19:28;7.00;99.90
35603;DHT22;21725;50.836;4.368;2024-03-07T05:22:29;4.60;99.90
35603;DHT22;21725;50.836;4.368;2024-03-07T05:25:30;7.00;99.90
35603;DHT22;21725;50.836;4.368;2024-03-07T05:28:31;6.80;99.90
35603;DHT22;21725;50.836;4.368;2024-03-07T05:31:32;6.80;99.90
35603;DHT22;21725;50.836;4.368;2024-03-07T05:34:35;6.90;99.90
35603;DHT22;21725;50.836;4.368;2024-03-07T05:37:41;6.90;99.90
35603;DHT22;21725;50.836;4.368;2024-03-07T05:40:47;7.00;99.90
35603;DHT22;21725;50.836;4.368;2024-03-07T05:43:48;7.00;99.90
35603;DHT22;21725;50.836;4.368;2024-03-07T05:46:51;7.10;99.90
35603;DHT22;21725;50.836;4.368;2024-03-07T05:49:52;6.90;99.90
35603;DHT22;21725;50.836;4.368;2024-03-07T05:52:52;6.90;99.90
35603;DHT22;21725;50.836;4.368;2024-03-07T05:55:53;7.00;99.90
35603;DHT22;21725;50.836;4.368;2024-03-07T05:58:54;7.00;99.90
35603;DHT22;21725;50.836;4.368;2024-03-07T06:01:55;6.90;99.90
35603;DHT22;21725;50.836;4.368;2024-03-07T06:04:56;7.10;99.90
35603;DHT22;21725;50.836;4.368;2024-03-07T06:07:59;7.10;99.90
35603;DHT22;21725;50.836;4.368;2024-03-07T06:10:59;7.00;99.90
35603;DHT22;21725;50.836;4.368;2024-03-07T06:14:00;5.30;99.90
35603;DHT22;21725;50.836;4.368;2024-03-07T06:17:03;7.00;99.90
35603;DHT22;21725;50.836;4.368;2024-03-07T06:20:04;7.10;99.90
35603;DHT22;21725;50.836;4.368;2024-03-07T06:23:09;7.20;99.90
35603;DHT22;21725;50.836;4.368;2024-03-07T06:26:15;7.00;99.90
35603;DHT22;21725;50.836;4.368;2024-03-07T06:29:17;7.00;99.90
35603;DHT22;21725;50.836;4.368;2024-03-07T06:32:18;7.00;99.90
35603;DHT22;21725;50.836;4.368;2024-03-07T06:35:19;7.00;99.90
35603;DHT22;21725;50.836;4.368;2024-03-07T06:38:22;6.90;99.90
35603;DHT22;21725;50.836;4.368;2024-03-07T06:41:22;7.10;99.90
35603;DHT22;21725;50.836;4.368;2024-03-07T06:44:25;7.30;99.90
35603;DHT22;21725;50.836;4.368;2024-03-07T06:47:27;7.30;99.90
35603;DHT22;21725;50.836;4.368;2024-03-07T06:50:27;7.40;99.90
35603;DHT22;21725;50.836;4.368;2024-03-07T06:53:31;7.10;99.90
35603;DHT22;21725;50.836;4.368;2024-03-07T06:56:32;7.10;99.90
35603;DHT22;21725;50.836;4.368;2024-03-07T06:59:33;7.30;99.90
35603;DHT22;21725;50.836;4.368;2024-03-07T07:02:34;6.90;99.90
35603;DHT22;21725;50.836;4.368;2024-03-07T07:05:35;7.00;99.90
35603;DHT22;21725;50.836;4.368;2024-03-07T07:08:36;7.00;99.90
35603;DHT22;21725;50.836;4.368;2024-03-07T07:11:37;7.00;99.90
35603;DHT22;21725;50.836;4.368;2024-03-07T07:14:38;7.10;99.90
35603;DHT22;21725;50.836;4.368;2024-03-07T07:17:39;7.20;99.90
35603;DHT22;21725;50.836;4.368;2024-03-07T07:20:40;7.40;99.90
35603;DHT22;21725;50.836;4.368;2024-03-07T07:23:41;7.40;99.90
35603;DHT22;21725;50.836;4.368;2024-03-07T07:26:41;7.60;99.90
35603;DHT22;21725;50.836;4.368;2024-03-07T07:29:42;7.70;99.90
35603;DHT22;21725;50.836;4.368;2024-03-07T07:32:43;7.70;99.90
35603;DHT22;21725;50.836;4.368;2024-03-07T07:35:44;7.80;99.90
35603;DHT22;21725;50.836;4.368;2024-03-07T07:38:45;7.80;99.90
35603;DHT22;21725;50.836;4.368;2024-03-07T07:41:45;7.50;99.90
35603;DHT22;21725;50.836;4.368;2024-03-07T07:44:46;7.40;99.90
35603;DHT22;21725;50.836;4.368;2024-03-07T07:47:51;7.40;99.90
35603;DHT22;21725;50.836;4.368;2024-03-07T07:50:52;7.30;99.90
35603;DHT22;21725;50.836;4.368;2024-03-07T07:53:52;7.40;99.90
35603;DHT22;21725;50.836;4.368;2024-03-07T07:56:54;7.50;99.90
35603;DHT22;21725;50.836;4.368;2024-03-07T07:59:55;7.10;99.90
35603;DHT22;21725;50.836;4.368;2024-03-07T08:03:04;7.20;99.90
35603;DHT22;21725;50.836;4.368;2024-03-07T08:06:06;7.30;99.90
35603;DHT22;21725;50.836;4.368;2024-03-07T08:09:07;7.40;99.90
35603;DHT22;21725;50.836;4.368;2024-03-07T08:12:10;7.40;99.90
35603;DHT22;21725;50.836;4.368;2024-03-07T08:15:13;7.50;99.90
35603;DHT22;21725;50.836;4.368;2024-03-07T08:18:14;7.70;99.90
35603;DHT22;21725;50.836;4.368;2024-03-07T08:21:15;7.70;99.90
35603;DHT22;21725;50.836;4.368;2024-03-07T08:24:15;7.90;99.90
35603;DHT22;21725;50.836;4.368;2024-03-07T08:27:16;8.00;99.90
35603;DHT22;21725;50.836;4.368;2024-03-07T08:30:18;7.80;99.90
35603;DHT22;21725;50.836;4.368;2024-03-07T08:33:19;7.80;99.90
35603;DHT22;21725;50.836;4.368;2024-03-07T08:36:22;7.70;99.90
35603;DHT22;21725;50.836;4.368;2024-03-07T08:39:22;7.70;99.90
35603;DHT22;21725;50.836;4.368;2024-03-07T08:42:23;7.70;99.90
35603;DHT22;21725;50.836;4.368;2024-03-07T08:45:25;8.00;99.90
35603;DHT22;21725;50.836;4.368;2024-03-07T08:48:26;8.00;99.90
35603;DHT22;21725;50.836;4.368;2024-03-07T08:51:27;7.90;99.90
35603;DHT22;21725;50.836;4.368;2024-03-07T08:54:28;8.00;99.90
35603;DHT22;21725;50.836;4.368;2024-03-07T08:57:29;7.70;99.90
35603;DHT22;21725;50.836;4.368;2024-03-07T09:00:30;7.40;99.90
35603;DHT22;21725;50.836;4.368;2024-03-07T09:03:32;7.60;99.90
35603;DHT22;21725;50.836;4.368;2024-03-07T09:06:33;7.70;99.90
35603;DHT22;21725;50.836;4.368;2024-03-07T09:09:34;7.60;99.90
35603;DHT22;21725;50.836;4.368;2024-03-07T09:12:35;7.60;99.90
35603;DHT22;21725;50.836;4.368;2024-03-07T09:15:37;7.80;99.90
35603;DHT22;21725;50.836;4.368;2024-03-07T09:18:37;8.30;99.90
35603;DHT22;21725;50.836;4.368;2024-03-07T09:21:42;8.30;99.90
35603;DHT22;21725;50.836;4.368;2024-03-07T09:24:43;8.40;99.90
35603;DHT22;21725;50.836;4.368;2024-03-07T09:27:43;8.30;99.90
35603;DHT22;21725;50.836;4.368;2024-03-07T09:30:44;8.10;99.90
35603;DHT22;21725;50.836;4.368;2024-03-07T09:33:45;8.10;99.90
35603;DHT22;21725;50.836;4.368;2024-03-07T09:36:49;8.30;99.90
35603;DHT22;21725;50.836;4.368;2024-03-07T09:39:50;8.80;99.90
35603;DHT22;21725;50.836;4.368;2024-03-07T09:42:51;8.50;99.90
35603;DHT22;21725;50.836;4.368;2024-03-07T09:45:53;8.70;99.90
35603;DHT22;21725;50.836;4.368;2024-03-07T09:48:53;8.80;99.90
35603;DHT22;21725;50.836;4.368;2024-03-07T09:51:56;8.90;99.90
35603;DHT22;21725;50.836;4.368;2024-03-07T09:54:57;8.70;99.90
35603;DHT22;21725;50.836;4.368;2024-03-07T09:58:00;8.80;99.90
35603;DHT22;21725;50.836;4.368;2024-03-07T10:01:02;8.90;99.90
35603;DHT22;21725;50.836;4.368;2024-03-07T10:04:09;9.00;99.90
35603;DHT22;21725;50.836;4.368;2024-03-07T10:07:13;8.80;99.90
35603;DHT22;21725;50.836;4.368;2024-03-07T10:10:14;8.70;99.90
35603;DHT22;21725;50.836;4.368;2024-03-07T10:13:15;8.80;99.90
35603;DHT22;21725;50.836;4.368;2024-03-07T10:16:16;6.50;99.90
35603;DHT22;21725;50.836;4.368;2024-03-07T10:19:18;9.20;99.90
35603;DHT22;21725;50.836;4.368;2024-03-07T10:22:19;9.30;99.90
35603;DHT22;21725;50.836;4.368;2024-03-07T10:25:21;9.30;99.90
35603;DHT22;21725;50.836;4.368;2024-03-07T10:28:31;9.40;99.90
35603;DHT22;21725;50.836;4.368;2024-03-07T10:31:32;9.70;99.90
35603;DHT22;21725;50.836;4.368;2024-03-07T10:34:34;9.70;99.90
35603;DHT22;21725;50.836;4.368;2024-03-07T10:37:35;10.00;99.90
35603;DHT22;21725;50.836;4.368;2024-03-07T10:40:36;10.40;99.90
35603;DHT22;21725;50.836;4.368;2024-03-07T10:43:43;10.20;99.90
35603;DHT22;21725;50.836;4.368;2024-03-07T10:46:52;10.20;99.90
35603;DHT22;21725;50.836;4.368;2024-03-07T10:50:50;10.40;99.90
35603;DHT22;21725;50.836;4.368;2024-03-07T10:56:51;10.80;99.90
35603;DHT22;21725;50.836;4.368;2024-03-07T10:59:57;10.70;99.90
35603;DHT22;21725;50.836;4.368;2024-03-07T11:03:01;10.70;99.90
35603;DHT22;21725;50.836;4.368;2024-03-07T11:06:07;10.70;99.90
35603;DHT22;21725;50.836;4.368;2024-03-07T11:09:11;10.80;99.90
35603;DHT22;21725;50.836;4.368;2024-03-07T11:12:14;10.70;99.90
35603;DHT22;21725;50.836;4.368;2024-03-07T11:15:16;10.80;99.90
35603;DHT22;21725;50.836;4.368;2024-03-07T11:18:20;10.70;99.90
35603;DHT22;21725;50.836;4.368;2024-03-07T11:21:40;10.90;99.90
35603;DHT22;21725;50.836;4.368;2024-03-07T11:24:41;11.30;99.90
35603;DHT22;21725;50.836;4.368;2024-03-07T11:28:00;11.60;99.90
35603;DHT22;21725;50.836;4.368;2024-03-07T11:31:12;11.50;99.90
35603;DHT22;21725;50.836;4.368;2024-03-07T11:34:15;11.60;99.90
35603;DHT22;21725;50.836;4.368;2024-03-07T11:37:21;11.80;99.90
35603;DHT22;21725;50.836;4.368;2024-03-07T11:43:38;11.80;99.90
35603;DHT22;21725;50.836;4.368;2024-03-07T11:46:39;11.60;99.90
35603;DHT22;21725;50.836;4.368;2024-03-07T11:49:44;11.80;99.90
35603;DHT22;21725;50.836;4.368;2024-03-07T11:52:48;12.00;99.90
35603;DHT22;21725;50.836;4.368;2024-03-07T11:55:51;11.80;99.90
35603;DHT22;21725;50.836;4.368;2024-03-07T11:58:54;11.70;99.90
35603;DHT22;21725;50.836;4.368;2024-03-07T12:01:58;11.80;99.90
35603;DHT22;21725;50.836;4.368;2024-03-07T12:05:01;11.20;99.90
35603;DHT22;21725;50.836;4.368;2024-03-07T12:08:05;11.10;99.90
35603;DHT22;21725;50.836;4.368;2024-03-07T12:11:06;11.40;99.90
35603;DHT22;21725;50.836;4.368;2024-03-07T12:14:07;11.90;99.90
35603;DHT22;21725;50.836;4.368;2024-03-07T12:17:07;12.40;99.90
35603;DHT22;21725;50.836;4.368;2024-03-07T12:20:09;12.80;99.90
35603;DHT22;21725;50.836;4.368;2024-03-07T12:23:31;13.10;99.90
35603;DHT22;21725;50.836;4.368;2024-03-07T12:26:33;13.20;99.90
35603;DHT22;21725;50.836;4.368;2024-03-07T12:29:35;12.70;99.90
35603;DHT22;21725;50.836;4.368;2024-03-07T12:32:36;12.60;99.90
35603;DHT22;21725;50.836;4.368;2024-03-07T12:35:37;12.70;99.90
35603;DHT22;21725;50.836;4.368;2024-03-07T12:38:38;12.90;99.90
35603;DHT22;21725;50.836;4.368;2024-03-07T12:41:41;12.70;99.90
35603;DHT22;21725;50.836;4.368;2024-03-07T12:44:42;12.60;99.90
35603;DHT22;21725;50.836;4.368;2024-03-07T12:47:51;12.70;99.90
35603;DHT22;21725;50.836;4.368;2024-03-07T12:50:54;12.70;99.90
35603;DHT22;21725;50.836;4.368;2024-03-07T12:53:55;12.20;99.90
35603;DHT22;21725;50.836;4.368;2024-03-07T12:56:56;12.30;99.90
35603;DHT22;21725;50.836;4.368;2024-03-07T12:59:57;12.00;99.90
35603;DHT22;21725;50.836;4.368;2024-03-07T13:02:57;11.50;99.90
35603;DHT22;21725;50.836;4.368;2024-03-07T13:06:00;11.70;99.90
35603;DHT22;21725;50.836;4.368;2024-03-07T13:09:01;11.60;99.90
35603;DHT22;21725;50.836;4.368;2024-03-07T13:12:06;11.70;99.90
35603;DHT22;21725;50.836;4.368;2024-03-07T13:15:09;12.00;99.90
35603;DHT22;21725;50.836;4.368;2024-03-07T13:18:13;11.60;99.90
35603;DHT22;21725;50.836;4.368;2024-03-07T13:21:14;11.60;99.90
35603;DHT22;21725;50.836;4.368;2024-03-07T13:24:17;11.40;99.90
35603;DHT22;21725;50.836;4.368;2024-03-07T13:27:18;11.50;99.90
35603;DHT22;21725;50.836;4.368;2024-03-07T13:30:31;10.80;99.90
35603;DHT22;21725;50.836;4.368;2024-03-07T13:33:32;11.90;99.90
35603;DHT22;21725;50.836;4.368;2024-03-07T13:36:33;11.90;99.90
35603;DHT22;21725;50.836;4.368;2024-03-07T13:39:34;11.90;99.90
35603;DHT22;21725;50.836;4.368;2024-03-07T13:42:35;11.70;99.90
35603;DHT22;21725;50.836;4.368;2024-03-07T13:45:36;9.70;99.90
35603;DHT22;21725;50.836;4.368;2024-03-07T13:48:41;11.80;99.90
35603;DHT22;21725;50.836;4.368;2024-03-07T13:51:43;12.10;99.90
35603;DHT22;21725;50.836;4.368;2024-03-07T13:55:04;11.80;99.90
35603;DHT22;21725;50.836;4.368;2024-03-07T13:58:13;11.90;99.80
35603;DHT22;21725;50.836;4.368;2024-03-07T14:05:10;11.80;99.90
35603;DHT22;21725;50.836;4.368;2024-03-07T14:28:17;11.10;99.90
35603;DHT22;21725;50.836;4.368;2024-03-07T14:31:20;11.00;99.90
35603;DHT22;21725;50.836;4.368;2024-03-07T14:34:45;11.40;99.90
35603;DHT22;21725;50.836;4.368;2024-03-07T14:38:24;11.60;99.00
35603;DHT22;21725;50.836;4.368;2024-03-07T14:42:04;11.60;98.10
35603;DHT22;21725;50.836;4.368;2024-03-07T14:45:12;11.60;98.20
35603;DHT22;21725;50.836;4.368;2024-03-07T14:48:17;9.50;97.60
35603;DHT22;21725;50.836;4.368;2024-03-07T14:51:19;11.50;98.50
35603;DHT22;21725;50.836;4.368;2024-03-07T14:54:22;11.40;99.00
35603;DHT22;21725;50.836;4.368;2024-03-07T14:57:23;11.40;99.60
35603;DHT22;21725;50.836;4.368;2024-03-07T15:00:24;11.70;99.00
35603;DHT22;21725;50.836;4.368;2024-03-07T15:03:28;11.60;98.60
35603;DHT22;21725;50.836;4.368;2024-03-07T15:06:29;11.40;98.30
35603;DHT22;21725;50.836;4.368;2024-03-07T15:09:32;11.40;98.90
35603;DHT22;21725;50.836;4.368;2024-03-07T15:12:34;11.40;98.80
35603;DHT22;21725;50.836;4.368;2024-03-07T15:15:35;11.50;98.50
35603;DHT22;21725;50.836;4.368;2024-03-07T15:18:36;11.30;97.80
35603;DHT22;21725;50.836;4.368;2024-03-07T15:21:37;11.30;98.20
35603;DHT22;21725;50.836;4.368;2024-03-07T15:24:38;11.30;98.30
35603;DHT22;21725;50.836;4.368;2024-03-07T15:27:40;11.30;98.00
35603;DHT22;21725;50.836;4.368;2024-03-07T15:30:41;11.30;98.10
35603;DHT22;21725;50.836;4.368;2024-03-07T15:33:42;11.20;98.40
35603;DHT22;21725;50.836;4.368;2024-03-07T15:36:44;11.00;98.40
35603;DHT22;21725;50.836;4.368;2024-03-07T15:39:46;11.00;98.80
35603;DHT22;21725;50.836;4.368;2024-03-07T15:42:48;11.00;98.60
35603;DHT22;21725;50.836;4.368;2024-03-07T15:45:52;11.20;98.10
35603;DHT22;21725;50.836;4.368;2024-03-07T15:48:53;11.00;98.10
35603;DHT22;21725;50.836;4.368;2024-03-07T15:51:53;11.10;98.00
35603;DHT22;21725;50.836;4.368;2024-03-07T15:54:54;11.00;98.10
35603;DHT22;21725;50.836;4.368;2024-03-07T15:57:56;11.10;98.10
35603;DHT22;21725;50.836;4.368;2024-03-07T16:00:56;11.20;97.60
35603;DHT22;21725;50.836;4.368;2024-03-07T16:03:57;11.20;98.20
35603;DHT22;21725;50.836;4.368;2024-03-07T16:07:01;11.00;98.30
35603;DHT22;21725;50.836;4.368;2024-03-07T16:10:02;10.90;98.30
35603;DHT22;21725;50.836;4.368;2024-03-07T16:13:05;11.00;98.30
35603;DHT22;21725;50.836;4.368;2024-03-07T16:16:09;10.80;98.00
35603;DHT22;21725;50.836;4.368;2024-03-07T16:19:10;11.00;98.50
35603;DHT22;21725;50.836;4.368;2024-03-07T16:22:10;11.00;98.30
35603;DHT22;21725;50.836;4.368;2024-03-07T16:25:15;11.20;98.10
35603;DHT22;21725;50.836;4.368;2024-03-07T16:28:16;11.20;97.90
35603;DHT22;21725;50.836;4.368;2024-03-07T16:31:21;11.10;98.20
35603;DHT22;21725;50.836;4.368;2024-03-07T16:34:22;11.30;98.40
35603;DHT22;21725;50.836;4.368;2024-03-07T16:37:22;11.20;98.30
35603;DHT22;21725;50.836;4.368;2024-03-07T16:40:24;11.30;97.80
35603;DHT22;21725;50.836;4.368;2024-03-07T16:43:26;11.30;97.40
35603;DHT22;21725;50.836;4.368;2024-03-07T16:46:26;11.20;97.70
35603;DHT22;21725;50.836;4.368;2024-03-07T16:49:27;11.30;97.90
35603;DHT22;21725;50.836;4.368;2024-03-07T16:52:28;11.20;97.80
35603;DHT22;21725;50.836;4.368;2024-03-07T16:55:29;11.20;97.90
35603;DHT22;21725;50.836;4.368;2024-03-07T16:58:30;11.10;97.80
35603;DHT22;21725;50.836;4.368;2024-03-07T17:01:31;11.10;98.10
35603;DHT22;21725;50.836;4.368;2024-03-07T17:04:31;11.00;97.90
35603;DHT22;21725;50.836;4.368;2024-03-07T17:07:32;11.00;98.20
35603;DHT22;21725;50.836;4.368;2024-03-07T17:10:37;10.90;98.10
35603;DHT22;21725;50.836;4.368;2024-03-07T17:13:40;10.80;98.00
35603;DHT22;21725;50.836;4.368;2024-03-07T17:16:42;10.70;97.90
35603;DHT22;21725;50.836;4.368;2024-03-07T17:19:43;10.80;98.40
35603;DHT22;21725;50.836;4.368;2024-03-07T17:22:44;10.70;98.30
35603;DHT22;21725;50.836;4.368;2024-03-07T17:25:45;10.90;98.40
35603;DHT22;21725;50.836;4.368;2024-03-07T17:28:47;11.00;98.30
35603;DHT22;21725;50.836;4.368;2024-03-07T17:31:49;11.00;98.30
35603;DHT22;21725;50.836;4.368;2024-03-07T17:34:49;11.00;98.30
35603;DHT22;21725;50.836;4.368;2024-03-07T17:37:51;10.90;98.10
35603;DHT22;21725;50.836;4.368;2024-03-07T17:40:52;10.90;98.10
35603;DHT22;21725;50.836;4.368;2024-03-07T17:43:52;10.70;98.20
35603;DHT22;21725;50.836;4.368;2024-03-07T17:46:53;10.60;98.50
35603;DHT22;21725;50.836;4.368;2024-03-07T17:49:54;10.90;98.40
35603;DHT22;21725;50.836;4.368;2024-03-07T17:52:57;10.80;98.30
35603;DHT22;21725;50.836;4.368;2024-03-07T17:56:24;10.60;98.40
35603;DHT22;21725;50.836;4.368;2024-03-07T17:59:24;10.60;98.60
35603;DHT22;21725;50.836;4.368;2024-03-07T18:02:25;10.60;98.80
35603;DHT22;21725;50.836;4.368;2024-03-07T18:05:28;10.60;99.00
35603;DHT22;21725;50.836;4.368;2024-03-07T18:08:37;10.50;98.80
35603;DHT22;21725;50.836;4.368;2024-03-07T18:11:37;10.30;99.20
35603;DHT22;21725;50.836;4.368;2024-03-07T18:14:38;10.30;99.40
35603;DHT22;21725;50.836;4.368;2024-03-07T18:17:39;10.20;99.50
35603;DHT22;21725;50.836;4.368;2024-03-07T18:20:40;10.10;99.50
35603;DHT22;21725;50.836;4.368;2024-03-07T18:23:41;10.10;99.70
35603;DHT22;21725;50.836;4.368;2024-03-07T18:26:43;10.10;99.90
35603;DHT22;21725;50.836;4.368;2024-03-07T18:29:43;10.20;99.90
35603;DHT22;21725;50.836;4.368;2024-03-07T18:32:44;10.10;99.90
35603;DHT22;21725;50.836;4.368;2024-03-07T18:35:46;10.10;99.90
35603;DHT22;21725;50.836;4.368;2024-03-07T18:38:47;10.20;99.90
35603;DHT22;21725;50.836;4.368;2024-03-07T18:41:51;9.90;99.90
35603;DHT22;21725;50.836;4.368;2024-03-07T18:44:52;9.80;99.90
35603;DHT22;21725;50.836;4.368;2024-03-07T18:47:54;9.90;99.90
35603;DHT22;21725;50.836;4.368;2024-03-07T18:50:57;9.80;99.90
35603;DHT22;21725;50.836;4.368;2024-03-07T18:53:59;9.90;99.90
35603;DHT22;21725;50.836;4.368;2024-03-07T18:56:59;9.80;99.90
35603;DHT22;21725;50.836;4.368;2024-03-07T19:00:00;9.80;99.90
35603;DHT22;21725;50.836;4.368;2024-03-07T19:03:06;9.80;99.90
35603;DHT22;21725;50.836;4.368;2024-03-07T19:06:10;9.90;99.90
35603;DHT22;21725;50.836;4.368;2024-03-07T19:09:10;9.60;99.90
35603;DHT22;21725;50.836;4.368;2024-03-07T19:12:14;9.60;99.90
35603;DHT22;21725;50.836;4.368;2024-03-07T19:15:16;9.50;99.90
35603;DHT22;21725;50.836;4.368;2024-03-07T19:18:17;9.50;99.90
35603;DHT22;21725;50.836;4.368;2024-03-07T19:21:17;9.50;99.90
35603;DHT22;21725;50.836;4.368;2024-03-07T19:24:21;9.50;99.90
35603;DHT22;21725;50.836;4.368;2024-03-07T19:27:22;9.80;99.90
35603;DHT22;21725;50.836;4.368;2024-03-07T19:30:23;9.70;99.90
35603;DHT22;21725;50.836;4.368;2024-03-07T19:33:25;9.40;99.90
35603;DHT22;21725;50.836;4.368;2024-03-07T19:36:26;9.40;99.90
35603;DHT22;21725;50.836;4.368;2024-03-07T19:42:29;9.70;99.90
35603;DHT22;21725;50.836;4.368;2024-03-07T19:45:30;9.20;99.90
35603;DHT22;21725;50.836;4.368;2024-03-07T19:48:32;9.30;99.90
35603;DHT22;21725;50.836;4.368;2024-03-07T19:51:34;9.30;99.90
35603;DHT22;21725;50.836;4.368;2024-03-07T19:54:39;9.10;99.90
35603;DHT22;21725;50.836;4.368;2024-03-07T19:57:39;9.10;99.90